sensor_id;sensor_type;location;lat;lon;timestamp;P1;durP1;ratioP1;P2;durP2;ratioP2
74483;SDS011;62942;52.462;10.846;2023-04-01T00:00:57;1.3;;;4.7;;
74483;SDS011;62942;52.462;10.846;2023-04-01T00:02:07;1.4;;;4.4;;
74483;SDS011;62942;52.462;10.846;2023-04-01T00:03:16;1.5;;;5.5;;
74483;SDS011;62942;52.462;10.846;2023-04-01T00:04:26;1.6;;;5.6;;
74483;SDS011;62942;52.462;10.846;2023-04-01T00:05:36;1.9;;;6;;
74483;SDS011;62942;52.462;10.846;2023-04-01T00:06:47;1.7;;;5.4;;
74483;SDS011;62942;52.462;10.846;2023-04-01T00:07:47;1.6;;;4.8;;
74483;SDS011;62942;52.462;10.846;2023-04-01T00:08:57;1.7;;;5.9;;
74483;SDS011;62942;52.462;10.846;2023-04-01T00:09:57;1.5;;;4.9;;
74483;SDS011;62942;52.462;10.846;2023-04-01T00:11:06;1.6;;;6.6;;
74483;SDS011;62942;52.462;10.846;2023-04-01T00:12:06;1.7;;;5.4;;
74483;SDS011;62942;52.462;10.846;2023-04-01T00:13:07;1.6;;;6;;
74483;SDS011;62942;52.462;10.846;2023-04-01T00:14:17;1.4;;;6.3;;
74483;SDS011;62942;52.462;10.846;2023-04-01T00:15:26;1.5;;;5.1;;
74483;SDS011;62942;52.462;10.846;2023-04-01T00:16:37;1.7;;;6.5;;
74483;SDS011;62942;52.462;10.846;2023-04-01T00:17:37;1.4;;;4.8;;
74483;SDS011;62942;52.462;10.846;2023-04-01T00:18:37;1.4;;;4.4;;
74483;SDS011;62942;52.462;10.846;2023-04-01T00:19:46;1.4;;;5.1;;
74483;SDS011;62942;52.462;10.846;2023-04-01T00:20:49;1.5;;;4.5;;
74483;SDS011;62942;52.462;10.846;2023-04-01T00:21:56;1.5;;;5.3;;
74483;SDS011;62942;52.462;10.846;2023-04-01T00:23:06;1.6;;;6.2;;
74483;SDS011;62942;52.462;10.846;2023-04-01T00:24:17;1.4;;;5.9;;
74483;SDS011;62942;52.462;10.846;2023-04-01T00:25:27;1.4;;;6.4;;
74483;SDS011;62942;52.462;10.846;2023-04-01T00:26:26;1.5;;;5;;
74483;SDS011;62942;52.462;10.846;2023-04-01T00:27:36;1.6;;;5.7;;
74483;SDS011;62942;52.462;10.846;2023-04-01T00:28:36;1.5;;;5.2;;
74483;SDS011;62942;52.462;10.846;2023-04-01T00:29:47;1.5;;;5.5;;
74483;SDS011;62942;52.462;10.846;2023-04-01T00:30:56;1.6;;;6.7;;
74483;SDS011;62942;52.462;10.846;2023-04-01T00:32:06;1.6;;;5.4;;
74483;SDS011;62942;52.462;10.846;2023-04-01T00:33:06;1.5;;;6;;
74483;SDS011;62942;52.462;10.846;2023-04-01T00:34:16;1.6;;;6.6;;
74483;SDS011;62942;52.462;10.846;2023-04-01T00:35:17;1.7;;;6.2;;
74483;SDS011;62942;52.462;10.846;2023-04-01T00:36:26;1.6;;;6.4;;
74483;SDS011;62942;52.462;10.846;2023-04-01T00:37:27;1.4;;;5.3;;
74483;SDS011;62942;52.462;10.846;2023-04-01T00:38:37;1.5;;;4.8;;
74483;SDS011;62942;52.462;10.846;2023-04-01T00:39:37;1.7;;;5.3;;
74483;SDS011;62942;52.462;10.846;2023-04-01T00:40:47;1.7;;;5.8;;
74483;SDS011;62942;52.462;10.846;2023-04-01T00:41:47;1.5;;;4.9;;
74483;SDS011;62942;52.462;10.846;2023-04-01T00:42:56;1.6;;;6.1;;
74483;SDS011;62942;52.462;10.846;2023-04-01T00:44:11;1.5;;;5.5;;
74483;SDS011;62942;52.462;10.846;2023-04-01T00:45:23;1.4;;;6;;
74483;SDS011;62942;52.462;10.846;2023-04-01T00:46:16;1.7;;;7.9;;
74483;SDS011;62942;52.462;10.846;2023-04-01T00:47:26;1.7;;;6.8;;
74483;SDS011;62942;52.462;10.846;2023-04-01T00:48:27;1.5;;;5.6;;
74483;SDS011;62942;52.462;10.846;2023-04-01T00:49:37;1.6;;;6.7;;
74483;SDS011;62942;52.462;10.846;2023-04-01T00:50:47;1.5;;;6.6;;
74483;SDS011;62942;52.462;10.846;2023-04-01T00:51:47;1.4;;;7.3;;
74483;SDS011;62942;52.462;10.846;2023-04-01T00:52:57;1.3;;;3.3;;
74483;SDS011;62942;52.462;10.846;2023-04-01T00:53:57;1.6;;;6.3;;
74483;SDS011;62942;52.462;10.846;2023-04-01T00:54:57;1.4;;;5;;
74483;SDS011;62942;52.462;10.846;2023-04-01T00:56:07;1.8;;;7.2;;
74483;SDS011;62942;52.462;10.846;2023-04-01T00:57:07;1.4;;;4.9;;
74483;SDS011;62942;52.462;10.846;2023-04-01T00:58:17;1.3;;;4.5;;
74483;SDS011;62942;52.462;10.846;2023-04-01T00:59:27;1.5;;;5.1;;
74483;SDS011;62942;52.462;10.846;2023-04-01T01:00:36;1.4;;;5.4;;
74483;SDS011;62942;52.462;10.846;2023-04-01T01:01:46;1.5;;;6;;
74483;SDS011;62942;52.462;10.846;2023-04-01T01:02:56;1.6;;;5.9;;
74483;SDS011;62942;52.462;10.846;2023-04-01T01:04:06;1.7;;;6.4;;
74483;SDS011;62942;52.462;10.846;2023-04-01T01:05:16;1.6;;;6;;
74483;SDS011;62942;52.462;10.846;2023-04-01T01:06:19;1.4;;;4.7;;
74483;SDS011;62942;52.462;10.846;2023-04-01T01:07:20;1.6;;;5.6;;
74483;SDS011;62942;52.462;10.846;2023-04-01T01:08:29;1.5;;;6.2;;
74483;SDS011;62942;52.462;10.846;2023-04-01T01:09:38;1.5;;;5.7;;
74483;SDS011;62942;52.462;10.846;2023-04-01T01:10:47;1.7;;;6.9;;
74483;SDS011;62942;52.462;10.846;2023-04-01T01:12:01;1.7;;;6.4;;
74483;SDS011;62942;52.462;10.846;2023-04-01T01:12:58;1.5;;;5.5;;
74483;SDS011;62942;52.462;10.846;2023-04-01T01:13:58;1.8;;;8.7;;
74483;SDS011;62942;52.462;10.846;2023-04-01T01:15:08;1.6;;;7.1;;
74483;SDS011;62942;52.462;10.846;2023-04-01T01:16:17;1.7;;;5.8;;
74483;SDS011;62942;52.462;10.846;2023-04-01T01:17:19;1.6;;;5.2;;
74483;SDS011;62942;52.462;10.846;2023-04-01T01:18:18;1.6;;;5.6;;
74483;SDS011;62942;52.462;10.846;2023-04-01T01:19:33;1.5;;;5.8;;
74483;SDS011;62942;52.462;10.846;2023-04-01T01:21:30;1.8;;;7.3;;
74483;SDS011;62942;52.462;10.846;2023-04-01T01:21:35;1.4;;;5.3;;
74483;SDS011;62942;52.462;10.846;2023-04-01T01:22:31;1.5;;;4.6;;
74483;SDS011;62942;52.462;10.846;2023-04-01T01:23:42;1.7;;;6.8;;
74483;SDS011;62942;52.462;10.846;2023-04-01T01:24:42;1.6;;;5.8;;
74483;SDS011;62942;52.462;10.846;2023-04-01T01:25:47;1.4;;;5;;
74483;SDS011;62942;52.462;10.846;2023-04-01T01:26:59;1.6;;;5.1;;
74483;SDS011;62942;52.462;10.846;2023-04-01T01:27:58;1.6;;;6.7;;
74483;SDS011;62942;52.462;10.846;2023-04-01T01:28:58;1.4;;;5.7;;
74483;SDS011;62942;52.462;10.846;2023-04-01T01:30:09;1.6;;;5.7;;
74483;SDS011;62942;52.462;10.846;2023-04-01T01:31:17;1.4;;;5.5;;
74483;SDS011;62942;52.462;10.846;2023-04-01T01:32:19;1.7;;;5.7;;
74483;SDS011;62942;52.462;10.846;2023-04-01T01:34:23;1.8;;;6.6;;
74483;SDS011;62942;52.462;10.846;2023-04-01T01:34:38;1.7;;;5.2;;
74483;SDS011;62942;52.462;10.846;2023-04-01T01:35:47;1.6;;;5.5;;
74483;SDS011;62942;52.462;10.846;2023-04-01T01:36:47;1.7;;;5.8;;
74483;SDS011;62942;52.462;10.846;2023-04-01T01:37:57;1.5;;;6.9;;
74483;SDS011;62942;52.462;10.846;2023-04-01T01:39:06;1.7;;;6.7;;
74483;SDS011;62942;52.462;10.846;2023-04-01T01:40:17;1.8;;;6.2;;
74483;SDS011;62942;52.462;10.846;2023-04-01T01:41:26;2;;;7;;
74483;SDS011;62942;52.462;10.846;2023-04-01T01:42:37;1.5;;;5.7;;
74483;SDS011;62942;52.462;10.846;2023-04-01T01:43:37;1.7;;;5.9;;
74483;SDS011;62942;52.462;10.846;2023-04-01T01:44:46;1.6;;;4.7;;
74483;SDS011;62942;52.462;10.846;2023-04-01T01:45:47;1.6;;;5.7;;
74483;SDS011;62942;52.462;10.846;2023-04-01T01:46:56;1.6;;;6.4;;
74483;SDS011;62942;52.462;10.846;2023-04-01T01:47:56;1.7;;;5.3;;
74483;SDS011;62942;52.462;10.846;2023-04-01T01:49:06;1.6;;;6.3;;
74483;SDS011;62942;52.462;10.846;2023-04-01T01:50:16;1.7;;;6.4;;
74483;SDS011;62942;52.462;10.846;2023-04-01T01:51:27;1.7;;;5.7;;
74483;SDS011;62942;52.462;10.846;2023-04-01T01:52:36;1.6;;;5.7;;
74483;SDS011;62942;52.462;10.846;2023-04-01T01:53:46;1.9;;;7.6;;
74483;SDS011;62942;52.462;10.846;2023-04-01T01:54:57;1.8;;;7.1;;
74483;SDS011;62942;52.462;10.846;2023-04-01T01:55:56;1.6;;;5.5;;
74483;SDS011;62942;52.462;10.846;2023-04-01T01:57:07;1.6;;;5.5;;
74483;SDS011;62942;52.462;10.846;2023-04-01T01:58:08;1.6;;;5.8;;
74483;SDS011;62942;52.462;10.846;2023-04-01T01:59:17;1.7;;;6;;
74483;SDS011;62942;52.462;10.846;2023-04-01T02:00:16;1.8;;;7.3;;
74483;SDS011;62942;52.462;10.846;2023-04-01T02:01:17;1.7;;;6.7;;
74483;SDS011;62942;52.462;10.846;2023-04-01T02:02:26;1.8;;;6.3;;
74483;SDS011;62942;52.462;10.846;2023-04-01T02:03:37;1.7;;;6.6;;
74483;SDS011;62942;52.462;10.846;2023-04-01T02:04:46;1.9;;;6.1;;
74483;SDS011;62942;52.462;10.846;2023-04-01T02:05:57;1.7;;;7.5;;
74483;SDS011;62942;52.462;10.846;2023-04-01T02:07:07;1.7;;;6.2;;
74483;SDS011;62942;52.462;10.846;2023-04-01T02:08:17;1.5;;;5.3;;
74483;SDS011;62942;52.462;10.846;2023-04-01T02:09:26;1.6;;;6.2;;
74483;SDS011;62942;52.462;10.846;2023-04-01T02:10:37;1.5;;;6.1;;
74483;SDS011;62942;52.462;10.846;2023-04-01T02:11:37;1.7;;;6.1;;
74483;SDS011;62942;52.462;10.846;2023-04-01T02:12:46;1.5;;;5.4;;
74483;SDS011;62942;52.462;10.846;2023-04-01T02:13:48;1.6;;;5.1;;
74483;SDS011;62942;52.462;10.846;2023-04-01T02:14:47;1.6;;;4.8;;
74483;SDS011;62942;52.462;10.846;2023-04-01T02:15:58;1.5;;;5.4;;
74483;SDS011;62942;52.462;10.846;2023-04-01T02:17:07;1.7;;;5.7;;
74483;SDS011;62942;52.462;10.846;2023-04-01T02:18:16;1.7;;;7;;
74483;SDS011;62942;52.462;10.846;2023-04-01T02:19:27;1.8;;;8.4;;
74483;SDS011;62942;52.462;10.846;2023-04-01T02:20:36;1.6;;;5.6;;
74483;SDS011;62942;52.462;10.846;2023-04-01T02:21:46;1.7;;;7.1;;
74483;SDS011;62942;52.462;10.846;2023-04-01T02:22:56;1.6;;;5.2;;
74483;SDS011;62942;52.462;10.846;2023-04-01T02:24:08;1.7;;;6.6;;
74483;SDS011;62942;52.462;10.846;2023-04-01T02:25:07;1.6;;;5.7;;
74483;SDS011;62942;52.462;10.846;2023-04-01T02:26:07;1.7;;;5.9;;
74483;SDS011;62942;52.462;10.846;2023-04-01T02:27:16;1.5;;;5;;
74483;SDS011;62942;52.462;10.846;2023-04-01T02:28:26;1.7;;;5.7;;
74483;SDS011;62942;52.462;10.846;2023-04-01T02:29:36;1.5;;;5.6;;
74483;SDS011;62942;52.462;10.846;2023-04-01T02:30:46;1.5;;;4.6;;
74483;SDS011;62942;52.462;10.846;2023-04-01T02:31:56;1.5;;;4.7;;
74483;SDS011;62942;52.462;10.846;2023-04-01T02:32:56;1.7;;;5.5;;
74483;SDS011;62942;52.462;10.846;2023-04-01T02:33:56;1.4;;;5.9;;
74483;SDS011;62942;52.462;10.846;2023-04-01T02:35:07;1.9;;;7.1;;
74483;SDS011;62942;52.462;10.846;2023-04-01T02:36:16;1.4;;;5.8;;
74483;SDS011;62942;52.462;10.846;2023-04-01T02:37:16;1.5;;;4.9;;
74483;SDS011;62942;52.462;10.846;2023-04-01T02:38:26;1.7;;;4.9;;
74483;SDS011;62942;52.462;10.846;2023-04-01T02:39:26;1.7;;;5.4;;
74483;SDS011;62942;52.462;10.846;2023-04-01T02:40:45;1.5;;;4.7;;
74483;SDS011;62942;52.462;10.846;2023-04-01T02:41:39;1.5;;;6.2;;
74483;SDS011;62942;52.462;10.846;2023-04-01T02:42:46;1.4;;;6.7;;
74483;SDS011;62942;52.462;10.846;2023-04-01T02:43:56;1.7;;;6.2;;
74483;SDS011;62942;52.462;10.846;2023-04-01T02:44:56;1.5;;;5.2;;
74483;SDS011;62942;52.462;10.846;2023-04-01T02:46:06;1.4;;;5.9;;
74483;SDS011;62942;52.462;10.846;2023-04-01T02:47:16;1.6;;;6.3;;
74483;SDS011;62942;52.462;10.846;2023-04-01T02:48:16;1.6;;;6.1;;
74483;SDS011;62942;52.462;10.846;2023-04-01T02:49:26;1.7;;;4.7;;
74483;SDS011;62942;52.462;10.846;2023-04-01T02:50:36;1.7;;;6.4;;
74483;SDS011;62942;52.462;10.846;2023-04-01T02:51:36;1.6;;;5.8;;
74483;SDS011;62942;52.462;10.846;2023-04-01T02:52:46;1.5;;;5.2;;
74483;SDS011;62942;52.462;10.846;2023-04-01T02:53:46;1.7;;;6.8;;
74483;SDS011;62942;52.462;10.846;2023-04-01T02:54:56;1.5;;;5.2;;
74483;SDS011;62942;52.462;10.846;2023-04-01T02:56:06;1.7;;;5.6;;
74483;SDS011;62942;52.462;10.846;2023-04-01T02:57:06;1.7;;;4.8;;
74483;SDS011;62942;52.462;10.846;2023-04-01T02:58:16;1.9;;;6.8;;
74483;SDS011;62942;52.462;10.846;2023-04-01T02:59:16;1.8;;;5.6;;
74483;SDS011;62942;52.462;10.846;2023-04-01T03:00:26;1.8;;;6.4;;
74483;SDS011;62942;52.462;10.846;2023-04-01T03:01:36;1.6;;;6.4;;
74483;SDS011;62942;52.462;10.846;2023-04-01T03:02:46;1.8;;;5.6;;
74483;SDS011;62942;52.462;10.846;2023-04-01T03:03:46;1.7;;;7;;
74483;SDS011;62942;52.462;10.846;2023-04-01T03:04:56;1.7;;;6.4;;
74483;SDS011;62942;52.462;10.846;2023-04-01T03:05:56;1.7;;;5.4;;
74483;SDS011;62942;52.462;10.846;2023-04-01T03:07:06;1.9;;;7;;
74483;SDS011;62942;52.462;10.846;2023-04-01T03:08:16;1.9;;;6;;
74483;SDS011;62942;52.462;10.846;2023-04-01T03:09:26;1.7;;;4.8;;
74483;SDS011;62942;52.462;10.846;2023-04-01T03:10:36;1.9;;;6.6;;
74483;SDS011;62942;52.462;10.846;2023-04-01T03:11:36;1.8;;;5.6;;
74483;SDS011;62942;52.462;10.846;2023-04-01T03:12:46;1.8;;;4.9;;
74483;SDS011;62942;52.462;10.846;2023-04-01T03:13:56;1.7;;;6.5;;
74483;SDS011;62942;52.462;10.846;2023-04-01T03:14:56;1.9;;;5.8;;
74483;SDS011;62942;52.462;10.846;2023-04-01T03:16:06;1.9;;;7.9;;
74483;SDS011;62942;52.462;10.846;2023-04-01T03:17:16;2;;;6.2;;
74483;SDS011;62942;52.462;10.846;2023-04-01T03:18:16;1.8;;;5.7;;
74483;SDS011;62942;52.462;10.846;2023-04-01T03:19:26;1.9;;;5.2;;
74483;SDS011;62942;52.462;10.846;2023-04-01T03:20:26;1.9;;;5.4;;
74483;SDS011;62942;52.462;10.846;2023-04-01T03:21:36;2.1;;;5.9;;
74483;SDS011;62942;52.462;10.846;2023-04-01T03:22:46;2;;;6.7;;
74483;SDS011;62942;52.462;10.846;2023-04-01T03:23:46;2.1;;;7.5;;
74483;SDS011;62942;52.462;10.846;2023-04-01T03:24:56;2;;;5.4;;
74483;SDS011;62942;52.462;10.846;2023-04-01T03:25:56;1.9;;;6.2;;
74483;SDS011;62942;52.462;10.846;2023-04-01T03:26:56;2;;;6;;
74483;SDS011;62942;52.462;10.846;2023-04-01T03:28:06;2.2;;;6.2;;
74483;SDS011;62942;52.462;10.846;2023-04-01T03:29:16;2.1;;;6.3;;
74483;SDS011;62942;52.462;10.846;2023-04-01T03:30:26;2.1;;;7.1;;
74483;SDS011;62942;52.462;10.846;2023-04-01T03:31:26;2;;;5.4;;
74483;SDS011;62942;52.462;10.846;2023-04-01T03:32:36;2.2;;;6.1;;
74483;SDS011;62942;52.462;10.846;2023-04-01T03:33:46;2.3;;;5.9;;
74483;SDS011;62942;52.462;10.846;2023-04-01T03:34:46;2.2;;;6.6;;
74483;SDS011;62942;52.462;10.846;2023-04-01T03:35:56;2;;;4.7;;
74483;SDS011;62942;52.462;10.846;2023-04-01T03:37:06;2.2;;;6.8;;
74483;SDS011;62942;52.462;10.846;2023-04-01T03:38:16;2.1;;;6.1;;
74483;SDS011;62942;52.462;10.846;2023-04-01T03:39:16;2.2;;;7.2;;
74483;SDS011;62942;52.462;10.846;2023-04-01T03:40:26;2.2;;;6.3;;
74483;SDS011;62942;52.462;10.846;2023-04-01T03:41:36;2.4;;;7.5;;
74483;SDS011;62942;52.462;10.846;2023-04-01T03:42:46;2.3;;;6.9;;
74483;SDS011;62942;52.462;10.846;2023-04-01T03:43:56;2.4;;;7;;
74483;SDS011;62942;52.462;10.846;2023-04-01T03:44:56;2.2;;;6.5;;
74483;SDS011;62942;52.462;10.846;2023-04-01T03:46:06;2.1;;;6.6;;
74483;SDS011;62942;52.462;10.846;2023-04-01T03:47:16;2.3;;;7;;
74483;SDS011;62942;52.462;10.846;2023-04-01T03:48:26;2.3;;;7;;
74483;SDS011;62942;52.462;10.846;2023-04-01T03:49:36;2.1;;;5.1;;
74483;SDS011;62942;52.462;10.846;2023-04-01T03:50:46;2.3;;;6;;
74483;SDS011;62942;52.462;10.846;2023-04-01T03:51:56;2.3;;;7.5;;
74483;SDS011;62942;52.462;10.846;2023-04-01T03:52:56;2.5;;;7.2;;
74483;SDS011;62942;52.462;10.846;2023-04-01T03:53:56;2.2;;;5.5;;
74483;SDS011;62942;52.462;10.846;2023-04-01T03:55:06;2.3;;;6.6;;
74483;SDS011;62942;52.462;10.846;2023-04-01T03:56:16;2.4;;;7.3;;
74483;SDS011;62942;52.462;10.846;2023-04-01T03:57:26;2.4;;;6.8;;
74483;SDS011;62942;52.462;10.846;2023-04-01T03:58:36;2.2;;;6.3;;
74483;SDS011;62942;52.462;10.846;2023-04-01T03:59:46;2.4;;;7.4;;
74483;SDS011;62942;52.462;10.846;2023-04-01T04:00:56;2.4;;;7.1;;
74483;SDS011;62942;52.462;10.846;2023-04-01T04:02:06;2.2;;;7;;
74483;SDS011;62942;52.462;10.846;2023-04-01T04:03:16;2.3;;;7.5;;
74483;SDS011;62942;52.462;10.846;2023-04-01T04:04:26;2.3;;;6.3;;
74483;SDS011;62942;52.462;10.846;2023-04-01T04:05:36;2.3;;;6;;
74483;SDS011;62942;52.462;10.846;2023-04-01T04:06:36;2.2;;;6.7;;
74483;SDS011;62942;52.462;10.846;2023-04-01T04:07:46;2.3;;;6.7;;
74483;SDS011;62942;52.462;10.846;2023-04-01T04:08:46;2.4;;;5.8;;
74483;SDS011;62942;52.462;10.846;2023-04-01T04:09:56;2.3;;;6.5;;
74483;SDS011;62942;52.462;10.846;2023-04-01T04:10:56;2.2;;;5.5;;
74483;SDS011;62942;52.462;10.846;2023-04-01T04:12:06;2.3;;;7.5;;
74483;SDS011;62942;52.462;10.846;2023-04-01T04:13:16;2.5;;;6.7;;
74483;SDS011;62942;52.462;10.846;2023-04-01T04:14:26;2.4;;;7.1;;
74483;SDS011;62942;52.462;10.846;2023-04-01T04:15:36;2.5;;;7.5;;
74483;SDS011;62942;52.462;10.846;2023-04-01T04:16:46;2.6;;;7.9;;
74483;SDS011;62942;52.462;10.846;2023-04-01T04:17:56;2.4;;;6.9;;
74483;SDS011;62942;52.462;10.846;2023-04-01T04:19:06;2.8;;;7.5;;
74483;SDS011;62942;52.462;10.846;2023-04-01T04:20:16;2.2;;;5.6;;
74483;SDS011;62942;52.462;10.846;2023-04-01T04:21:26;2.5;;;7.6;;
74483;SDS011;62942;52.462;10.846;2023-04-01T04:22:26;2.1;;;6.1;;
74483;SDS011;62942;52.462;10.846;2023-04-01T04:23:36;2.3;;;7.1;;
74483;SDS011;62942;52.462;10.846;2023-04-01T04:24:46;2.5;;;6.3;;
74483;SDS011;62942;52.462;10.846;2023-04-01T04:25:54;2.6;;;8.2;;
74483;SDS011;62942;52.462;10.846;2023-04-01T04:26:56;2.3;;;5.8;;
74483;SDS011;62942;52.462;10.846;2023-04-01T04:28:06;2.5;;;7.1;;
74483;SDS011;62942;52.462;10.846;2023-04-01T04:29:16;2.4;;;6.8;;
74483;SDS011;62942;52.462;10.846;2023-04-01T04:30:26;2.5;;;6.2;;
74483;SDS011;62942;52.462;10.846;2023-04-01T04:31:36;2.8;;;7.9;;
74483;SDS011;62942;52.462;10.846;2023-04-01T04:32:46;2.5;;;6.4;;
74483;SDS011;62942;52.462;10.846;2023-04-01T04:33:46;2.4;;;6.5;;
74483;SDS011;62942;52.462;10.846;2023-04-01T04:34:56;2.6;;;8;;
74483;SDS011;62942;52.462;10.846;2023-04-01T04:36:06;2.5;;;6;;
74483;SDS011;62942;52.462;10.846;2023-04-01T04:37:16;2.5;;;7.1;;
74483;SDS011;62942;52.462;10.846;2023-04-01T04:38:26;2.4;;;5.6;;
74483;SDS011;62942;52.462;10.846;2023-04-01T04:39:36;2.8;;;6.7;;
74483;SDS011;62942;52.462;10.846;2023-04-01T04:40:46;2.5;;;7.5;;
74483;SDS011;62942;52.462;10.846;2023-04-01T04:41:56;2.6;;;6.2;;
74483;SDS011;62942;52.462;10.846;2023-04-01T04:43:06;2.8;;;6.2;;
74483;SDS011;62942;52.462;10.846;2023-04-01T04:44:16;2.3;;;5.5;;
74483;SDS011;62942;52.462;10.846;2023-04-01T04:45:26;2.6;;;7;;
74483;SDS011;62942;52.462;10.846;2023-04-01T04:46:36;2.6;;;6.5;;
74483;SDS011;62942;52.462;10.846;2023-04-01T04:47:46;2.6;;;6.8;;
74483;SDS011;62942;52.462;10.846;2023-04-01T04:48:46;2.7;;;7.2;;
74483;SDS011;62942;52.462;10.846;2023-04-01T04:49:56;2.6;;;7.6;;
74483;SDS011;62942;52.462;10.846;2023-04-01T04:50:56;2.3;;;6.5;;
74483;SDS011;62942;52.462;10.846;2023-04-01T04:52:06;2.5;;;5.8;;
74483;SDS011;62942;52.462;10.846;2023-04-01T04:53:16;2.6;;;7.1;;
74483;SDS011;62942;52.462;10.846;2023-04-01T04:54:26;2.6;;;7.6;;
74483;SDS011;62942;52.462;10.846;2023-04-01T04:55:26;2.8;;;6.9;;
74483;SDS011;62942;52.462;10.846;2023-04-01T04:56:26;2.8;;;7.1;;
74483;SDS011;62942;52.462;10.846;2023-04-01T04:57:26;2.7;;;8.1;;
74483;SDS011;62942;52.462;10.846;2023-04-01T04:58:26;2.6;;;5.9;;
74483;SDS011;62942;52.462;10.846;2023-04-01T04:59:36;2.6;;;6.7;;
74483;SDS011;62942;52.462;10.846;2023-04-01T05:00:46;2.6;;;6.4;;
74483;SDS011;62942;52.462;10.846;2023-04-01T05:01:46;2.7;;;6.5;;
74483;SDS011;62942;52.462;10.846;2023-04-01T05:02:56;2.7;;;5.9;;
74483;SDS011;62942;52.462;10.846;2023-04-01T05:03:56;2.7;;;8.1;;
74483;SDS011;62942;52.462;10.846;2023-04-01T05:04:56;2.8;;;7.9;;
74483;SDS011;62942;52.462;10.846;2023-04-01T05:05:56;2.4;;;6.1;;
74483;SDS011;62942;52.462;10.846;2023-04-01T05:07:06;2.7;;;7;;
74483;SDS011;62942;52.462;10.846;2023-04-01T05:08:06;2.7;;;5.8;;
74483;SDS011;62942;52.462;10.846;2023-04-01T05:09:16;2.6;;;6.4;;
74483;SDS011;62942;52.462;10.846;2023-04-01T05:10:16;2.6;;;6.2;;
74483;SDS011;62942;52.462;10.846;2023-04-01T05:11:17;2.6;;;6.7;;
74483;SDS011;62942;52.462;10.846;2023-04-01T05:12:26;2.5;;;6.5;;
74483;SDS011;62942;52.462;10.846;2023-04-01T05:13:36;2.6;;;6.9;;
74483;SDS011;62942;52.462;10.846;2023-04-01T05:14:46;2.7;;;6.7;;
74483;SDS011;62942;52.462;10.846;2023-04-01T05:15:46;2.6;;;8.2;;
74483;SDS011;62942;52.462;10.846;2023-04-01T05:16:56;2.6;;;7.5;;
74483;SDS011;62942;52.462;10.846;2023-04-01T05:17:56;2.6;;;6.7;;
74483;SDS011;62942;52.462;10.846;2023-04-01T05:18:56;2.7;;;7.3;;
74483;SDS011;62942;52.462;10.846;2023-04-01T05:20:06;2.8;;;5.9;;
74483;SDS011;62942;52.462;10.846;2023-04-01T05:21:16;2.8;;;7.6;;
74483;SDS011;62942;52.462;10.846;2023-04-01T05:22:26;2.6;;;7.6;;
74483;SDS011;62942;52.462;10.846;2023-04-01T05:23:36;2.4;;;6;;
74483;SDS011;62942;52.462;10.846;2023-04-01T05:24:46;2.6;;;6.7;;
74483;SDS011;62942;52.462;10.846;2023-04-01T05:25:56;2.4;;;6.6;;
74483;SDS011;62942;52.462;10.846;2023-04-01T05:27:06;2.3;;;5.4;;
74483;SDS011;62942;52.462;10.846;2023-04-01T05:28:16;2.6;;;6.2;;
74483;SDS011;62942;52.462;10.846;2023-04-01T05:29:16;2.4;;;7.4;;
74483;SDS011;62942;52.462;10.846;2023-04-01T05:30:26;2.5;;;7;;
74483;SDS011;62942;52.462;10.846;2023-04-01T05:31:36;2.6;;;6;;
74483;SDS011;62942;52.462;10.846;2023-04-01T05:32:36;2.6;;;5.9;;
74483;SDS011;62942;52.462;10.846;2023-04-01T05:33:46;2.5;;;7.5;;
74483;SDS011;62942;52.462;10.846;2023-04-01T05:34:46;2.3;;;6.7;;
74483;SDS011;62942;52.462;10.846;2023-04-01T05:35:46;2.5;;;7.9;;
74483;SDS011;62942;52.462;10.846;2023-04-01T05:36:46;2.5;;;5;;
74483;SDS011;62942;52.462;10.846;2023-04-01T05:37:56;2.6;;;7.9;;
74483;SDS011;62942;52.462;10.846;2023-04-01T05:39:06;2.2;;;6;;
74483;SDS011;62942;52.462;10.846;2023-04-01T05:40:16;2.4;;;5.4;;
74483;SDS011;62942;52.462;10.846;2023-04-01T05:41:16;2.4;;;5.2;;
74483;SDS011;62942;52.462;10.846;2023-04-01T05:42:26;2.5;;;6.5;;
74483;SDS011;62942;52.462;10.846;2023-04-01T05:43:26;2.6;;;7.8;;
74483;SDS011;62942;52.462;10.846;2023-04-01T05:44:36;2.2;;;4.8;;
74483;SDS011;62942;52.462;10.846;2023-04-01T05:45:46;2.2;;;5.1;;
74483;SDS011;62942;52.462;10.846;2023-04-01T05:46:56;2.2;;;5.1;;
74483;SDS011;62942;52.462;10.846;2023-04-01T05:47:56;2.1;;;5.8;;
74483;SDS011;62942;52.462;10.846;2023-04-01T05:49:06;2.3;;;6.5;;
74483;SDS011;62942;52.462;10.846;2023-04-01T05:50:16;2.3;;;7.2;;
74483;SDS011;62942;52.462;10.846;2023-04-01T05:51:26;2;;;5.9;;
74483;SDS011;62942;52.462;10.846;2023-04-01T05:52:36;1.9;;;5;;
74483;SDS011;62942;52.462;10.846;2023-04-01T05:53:46;1.9;;;4.7;;
74483;SDS011;62942;52.462;10.846;2023-04-01T05:54:56;1.8;;;4.2;;
74483;SDS011;62942;52.462;10.846;2023-04-01T05:55:56;1.8;;;4.1;;
74483;SDS011;62942;52.462;10.846;2023-04-01T05:57:06;1.7;;;5.8;;
74483;SDS011;62942;52.462;10.846;2023-04-01T05:58:06;1.9;;;5.3;;
74483;SDS011;62942;52.462;10.846;2023-04-01T05:59:06;1.8;;;5;;
74483;SDS011;62942;52.462;10.846;2023-04-01T06:00:16;1.9;;;6.1;;
74483;SDS011;62942;52.462;10.846;2023-04-01T06:01:26;1.8;;;5.3;;
74483;SDS011;62942;52.462;10.846;2023-04-01T06:02:26;2;;;5.9;;
74483;SDS011;62942;52.462;10.846;2023-04-01T06:03:36;2.4;;;6;;
74483;SDS011;62942;52.462;10.846;2023-04-01T06:04:37;2.4;;;4.8;;
74483;SDS011;62942;52.462;10.846;2023-04-01T06:05:46;2.8;;;5.8;;
74483;SDS011;62942;52.462;10.846;2023-04-01T06:06:56;2.7;;;6.8;;
74483;SDS011;62942;52.462;10.846;2023-04-01T06:07:58;2.7;;;6.7;;
74483;SDS011;62942;52.462;10.846;2023-04-01T06:09:07;2.7;;;7.8;;
74483;SDS011;62942;52.462;10.846;2023-04-01T06:10:09;2.3;;;6;;
74483;SDS011;62942;52.462;10.846;2023-04-01T06:11:11;2.1;;;5.1;;
74483;SDS011;62942;52.462;10.846;2023-04-01T06:12:20;2.5;;;5.8;;
74483;SDS011;62942;52.462;10.846;2023-04-01T06:13:30;2.2;;;4.3;;
74483;SDS011;62942;52.462;10.846;2023-04-01T06:14:37;2.2;;;5.4;;
74483;SDS011;62942;52.462;10.846;2023-04-01T06:15:36;2;;;5.4;;
74483;SDS011;62942;52.462;10.846;2023-04-01T06:16:39;1.9;;;4.4;;
74483;SDS011;62942;52.462;10.846;2023-04-01T06:17:51;2;;;5.8;;
74483;SDS011;62942;52.462;10.846;2023-04-01T06:18:59;2.1;;;5.7;;
74483;SDS011;62942;52.462;10.846;2023-04-01T06:20:07;1.9;;;4.8;;
74483;SDS011;62942;52.462;10.846;2023-04-01T06:21:22;2.1;;;6.4;;
74483;SDS011;62942;52.462;10.846;2023-04-01T06:22:21;1.9;;;4.7;;
74483;SDS011;62942;52.462;10.846;2023-04-01T06:23:32;1.8;;;4.8;;
74483;SDS011;62942;52.462;10.846;2023-04-01T06:24:30;1.8;;;4.5;;
74483;SDS011;62942;52.462;10.846;2023-04-01T06:25:38;1.9;;;5.6;;
74483;SDS011;62942;52.462;10.846;2023-04-01T06:26:37;2.1;;;7.4;;
74483;SDS011;62942;52.462;10.846;2023-04-01T06:27:41;1.9;;;7.3;;
74483;SDS011;62942;52.462;10.846;2023-04-01T06:28:40;1.7;;;4.8;;
74483;SDS011;62942;52.462;10.846;2023-04-01T06:29:41;1.8;;;5.6;;
74483;SDS011;62942;52.462;10.846;2023-04-01T06:30:46;1.9;;;5.3;;
74483;SDS011;62942;52.462;10.846;2023-04-01T06:32:00;1.9;;;4.8;;
74483;SDS011;62942;52.462;10.846;2023-04-01T06:32:59;1.9;;;4.9;;
74483;SDS011;62942;52.462;10.846;2023-04-01T06:34:10;2;;;5.2;;
74483;SDS011;62942;52.462;10.846;2023-04-01T06:35:19;2;;;5.2;;
74483;SDS011;62942;52.462;10.846;2023-04-01T06:36:32;1.9;;;5;;
74483;SDS011;62942;52.462;10.846;2023-04-01T06:37:42;2;;;4.6;;
74483;SDS011;62942;52.462;10.846;2023-04-01T06:38:40;2;;;5.7;;
74483;SDS011;62942;52.462;10.846;2023-04-01T06:39:55;2;;;5.8;;
74483;SDS011;62942;52.462;10.846;2023-04-01T06:41:44;2;;;5;;
74483;SDS011;62942;52.462;10.846;2023-04-01T06:41:59;2.2;;;5.7;;
74483;SDS011;62942;52.462;10.846;2023-04-01T06:43:07;1.8;;;4.9;;
74483;SDS011;62942;52.462;10.846;2023-04-01T06:44:16;2.3;;;6.3;;
74483;SDS011;62942;52.462;10.846;2023-04-01T06:45:20;2.1;;;5.7;;
74483;SDS011;62942;52.462;10.846;2023-04-01T06:46:29;2.1;;;5.9;;
74483;SDS011;62942;52.462;10.846;2023-04-01T06:47:39;2;;;6;;
74483;SDS011;62942;52.462;10.846;2023-04-01T06:48:50;1.8;;;4;;
74483;SDS011;62942;52.462;10.846;2023-04-01T06:49:48;2;;;5;;